ESSB Airport Information

Runway Information
Runway 12 Length 5472 ft width 148 ft
Elevation 46 ft Threshold ft Heading 125
Runway 30 Length 5472 ft Width 148 ft
Elevation 42 ft Threshold ft Heading 305
Airport Frequencies
Type AFIS Name AFIS Frequency 119.4 MHZ
Type APP Name APP Frequency 120.15 MHZ
Type ATIS Name ATIS Frequency 122.45 MHZ
Type GND Name GND Frequency 121.6 MHZ
Type TWR Name TWR Frequency 118.1 MHZ
Airport Navaids
Type NDB Name Nacka Frequency 335 KHZ
Type NDB Name Bromma Frequency 394 KHZ
Type NDB Name Bromma Frequency 322 KHZ
Airport Weather Information & NOTAM
ADDS - METARS form results

(1532 UTC 05 October 2022)
Data provider http://aviationweather.gov/metar/data/
 
METAR text: ESSB 051520Z 17007KT 150V210 9999 BKN021 15/13 Q1003
Conditions at: ESSB (STOCKHOLM/BROMMA, SE) observed 1520 UTC 05 October 2022
Temperature: 15.0°C (59°F)
Dewpoint: 13.0°C (55°F) [RH = 88%]
Pressure (altimeter): 29.62 inches Hg (1003.0 mb)
Winds: from the S (170 degrees) at 8 MPH (7 knots; 3.6 m/s)
Visibility: 6 or more miles (10+ km)
Ceiling: 2100 feet AGL
Clouds: broken clouds at 2100 feet AGL
Weather: no significant weather observed at this time

METAR text: ESSB 051450Z 18006KT 140V220 9999 BKN021 15/13 Q1004
Conditions at: ESSB (STOCKHOLM/BROMMA, SE) observed 1450 UTC 05 October 2022
Temperature: 15.0°C (59°F)
Dewpoint: 13.0°C (55°F) [RH = 88%]
Pressure (altimeter): 29.65 inches Hg (1004.0 mb)
Winds: from the S (180 degrees) at 7 MPH (6 knots; 3.1 m/s)
Visibility: 6 or more miles (10+ km)
Ceiling: 2100 feet AGL
Clouds: broken clouds at 2100 feet AGL
Weather: no significant weather observed at this time

Forecast for: ESSB (STOCKHOLM/BROMMA, SE)
Text: TAF ESSB 051430Z 0515/0521 20010KT 9999 SCT011 BKN020
Forecast period: 1500 to 2100 UTC 05 October 2022
Forecast type: FROM: standard forecast or significant change
Winds: from the SSW (200 degrees) at 12 MPH (10 knots; 5.1 m/s)
Visibility: 6 or more miles (10+ km)
Ceiling: 2000 feet AGL
Clouds: scattered clouds at 1100 feet AGL
broken clouds at 2000 feet AGL
Weather: no significant weather forecast for this period